ROYN

Details ICAO ROYN (OGN)
Name YONAGUNI
Region Japan
Timezone Unknown (UTC+0.0)
Plans Departing 13
Arriving 3
Stats Elevation 70 ft / 21 m (AMSL)
Location 24.466943° 122.977875°
Runways 1
Magnetic Variation 4.489° W
Sunrise 2017-12-15 22:26:06 UTC / 2017-12-15 22:26:06 Local
Sunset 2017-12-16 09:03:47 UTC / 2017-12-16 09:03:47 Local
Advertisement - Login to hide

Runways

ID Width Length Bearing (true) Bearing (mag) Surface Threshold Offset Overrun Length
08 150 ft / 46 m 4,917 ft / 1,499 m 75.20° 79.69° Asphalt 0 ft / 0 m 200 ft / 61 m
26 150 ft / 46 m 4,917 ft / 1,499 m 255.20° 259.69° Asphalt 0 ft / 0 m 200 ft / 61 m

Map

Weather


0- 5 10 15 20 25 30 35+ Temperature / ° C

Clouds and Precipitation
Forecast for 2017-12-15 18:00 UTC. Updated an hour ago

Ground ~20,000 ft ~40,000 ft Winds

METAR

ROYN 151600Z AUTO 09009KT 9999 FEW033 SCT037 BKN038 21/16 Q1018

TAF

Not found

Frequencies

Tower 118.50 MHz REMOTE
Warning: Do not use this data for real-world aviation or navigation. No guarantee of current accuracy is given.